Main page
METAR-TAF:

METAR-TAF

Airports :

Fukuoka Airport

Fukuoka, Japan

latitude: 33-35N, longitude: 130-27E, elevation: 9 m

Current weather observation

The report was made 39 minutes ago, at 13:30 UTC
Wind 1 kt from variable directions
Temperature 19°C
Humidity 60%
Pressure 1015 hPa
Visibility 10 km or more
Few clouds at a height of 2500 ft
Scattered clouds at a height of 12000 ft
Broken clouds at a height of 14000 ft

METAR: RJFF 201330Z VRB01KT 9999 FEW025 SCT120 BKN140 19/11 Q1015 RMK 1CU025 3AC120 7AC140 A3000

Time: 23:09 (14:09 UTC)

Forecast

The report was made 3 hours and 0 minutes ago, at 11:09 UTC
Forecast valid from 20 at 12 UTC to 21 at 18 UTC
Wind 8 kt from the Southeast
Visibility 10 km or more
Few clouds at a height of 3000 ft

TAF: RJFF 201109Z 2012/2118 14008KT 9999 FEW030

Weather observations and forecasts of more than 4000 airports (METAR and TAF reports).

The available stations are represented by yellow and red dots on the map.

Hover mouse over dot to see the name of the station.

Then click to see weather observations and forecasts.

To change the map : click on the green buttons with a black cross to zoom in, on the green button with a dash to zoom out, or on the green arrows for adjacent maps.


METAR-TAF: